createdAt,value
2019-05-02T00:01:38.491Z,126.60
2019-05-02T00:04:12.443Z,117.70
2019-05-02T00:06:44.200Z,127.97
2019-05-02T00:09:15.021Z,119.20
2019-05-02T00:11:58.319Z,121.20
2019-05-02T00:14:18.714Z,131.10
2019-05-02T00:16:50.481Z,116.87
2019-05-02T00:19:21.367Z,123.60
2019-05-02T00:21:52.013Z,130.50
2019-05-02T00:24:22.759Z,126.07
2019-05-02T00:26:56.119Z,118.70
2019-05-02T00:29:25.867Z,116.97
2019-05-02T00:31:56.599Z,126.53
2019-05-02T00:34:27.365Z,133.83
2019-05-02T00:36:58.102Z,136.17
2019-05-02T00:39:28.878Z,132.20
2019-05-02T00:42:12.113Z,119.13
2019-05-02T00:44:32.051Z,120.43
2019-05-02T00:47:14.181Z,133.77
2019-05-02T00:49:46.887Z,145.73
2019-05-02T00:52:17.700Z,135.63
2019-05-02T00:54:48.519Z,145.70
2019-05-02T00:57:19.993Z,145.13
2019-05-02T00:59:51.665Z,145.80
2019-05-02T01:02:35.854Z,134.33
2019-05-02T01:05:04.702Z,148.00
2019-05-02T01:07:35.427Z,153.00
2019-05-02T01:10:06.442Z,148.13
2019-05-02T01:12:40.041Z,148.13
2019-05-02T01:15:10.104Z,153.20
2019-05-02T01:17:40.909Z,140.30
2019-05-02T01:20:11.716Z,145.23
2019-05-02T01:22:42.427Z,150.37
2019-05-02T01:25:15.801Z,157.17
2019-05-02T01:28:03.201Z,144.20
2019-05-02T01:30:52.502Z,153.30
2019-05-02T01:33:29.479Z,143.50
2019-05-02T01:36:08.197Z,157.73
2019-05-02T01:38:42.785Z,147.20
2019-05-02T01:41:13.593Z,141.63
2019-05-02T01:43:44.391Z,137.70
2019-05-02T01:46:17.091Z,155.37
2019-05-02T01:48:47.807Z,151.17
2019-05-02T01:51:18.686Z,147.00
2019-05-02T01:53:49.493Z,144.63
2019-05-02T01:56:20.289Z,145.90
2019-05-02T01:58:55.803Z,153.63
2019-05-02T02:01:23.472Z,142.47
2019-05-02T02:03:54.278Z,145.97
2019-05-02T02:06:25.055Z,148.90
2019-05-02T02:08:55.892Z,145.50
2019-05-02T02:11:28.478Z,170.23
2019-05-02T02:13:59.074Z,203.70
2019-05-02T02:16:30.074Z,167.43
2019-05-02T02:19:08.454Z,161.60
2019-05-02T02:21:57.453Z,172.57
2019-05-02T02:24:31.442Z,156.07
2019-05-02T02:27:02.212Z,152.30
2019-05-02T02:29:32.980Z,161.27
2019-05-02T02:32:03.787Z,158.50
2019-05-02T02:34:34.534Z,152.27
2019-05-02T02:37:11.771Z,150.93
2019-05-02T02:39:37.764Z,160.47
2019-05-02T02:42:08.631Z,165.47
2019-05-02T02:44:56.631Z,168.53
2019-05-02T02:47:27.477Z,174.50
2019-05-02T02:50:02.733Z,176.07
2019-05-02T02:52:30.631Z,168.67
2019-05-02T02:55:01.397Z,169.63
2019-05-02T02:57:32.163Z,165.40
2019-05-02T03:00:08.038Z,151.83
2019-05-02T03:02:35.450Z,158.13
2019-05-02T03:05:06.554Z,142.93
2019-05-02T03:07:37.332Z,162.13
2019-05-02T03:10:08.537Z,145.27
2019-05-02T03:12:51.596Z,146.33
2019-05-02T03:15:28.195Z,160.50
2019-05-02T03:17:59.983Z,168.57
2019-05-02T03:20:28.075Z,146.87
2019-05-02T03:22:58.812Z,179.73
2019-05-02T03:25:49.039Z,181.77
2019-05-02T03:28:02.017Z,176.13
2019-05-02T03:30:37.243Z,178.57
2019-05-02T03:33:10.915Z,177.43
2019-05-02T03:35:44.863Z,186.67
2019-05-02T03:38:10.211Z,178.73
2019-05-02T03:40:41.354Z,200.33
2019-05-02T03:43:19.081Z,188.43
2019-05-02T03:45:45.573Z,194.23
2019-05-02T03:48:18.254Z,190.23
2019-05-02T03:50:49.435Z,195.57
2019-05-02T03:53:25.128Z,183.57
2019-05-02T03:55:52.857Z,182.33
2019-05-02T03:58:23.757Z,199.77
2019-05-02T04:01:00.258Z,203.83
2019-05-02T04:03:34.078Z,177.30
2019-05-02T04:06:01.254Z,202.40
2019-05-02T04:08:33.226Z,186.40
2019-05-02T04:11:22.791Z,194.77
2019-05-02T04:13:57.459Z,193.13
2019-05-02T04:16:29.940Z,186.27
2019-05-02T04:19:05.635Z,176.93
2019-05-02T04:21:36.808Z,186.87
2019-05-02T04:24:13.665Z,189.90
2019-05-02T04:26:52.117Z,202.97
2019-05-02T04:29:12.715Z,188.00
2019-05-02T04:31:43.506Z,185.20
2019-05-02T04:34:17.548Z,192.07
2019-05-02T04:36:47.473Z,203.77
2019-05-02T04:39:21.648Z,203.33
2019-05-02T04:41:51.463Z,203.33
2019-05-02T04:44:22.248Z,184.13
2019-05-02T04:46:59.845Z,183.00
2019-05-02T04:49:29.768Z,189.50
2019-05-02T04:52:05.907Z,189.87
2019-05-02T04:54:32.570Z,196.00
2019-05-02T04:57:02.847Z,181.50
2019-05-02T04:59:33.712Z,193.70
2019-05-02T05:02:04.484Z,192.60
2019-05-02T05:04:41.920Z,186.27
2019-05-02T05:07:09.320Z,177.73
2019-05-02T05:09:40.519Z,184.77
2019-05-02T05:12:11.403Z,185.13
2019-05-02T05:14:43.309Z,181.70
2019-05-02T05:17:14.182Z,182.00
2019-05-02T05:19:44.951Z,191.60
2019-05-02T05:22:18.251Z,192.17
2019-05-02T05:24:53.944Z,201.33
2019-05-02T05:27:24.720Z,194.60
2019-05-02T05:29:59.496Z,192.37
2019-05-02T05:32:28.237Z,197.97
2019-05-02T05:35:03.398Z,189.80
2019-05-02T05:37:31.525Z,186.70
2019-05-02T05:40:02.314Z,184.57
2019-05-02T05:42:33.478Z,194.80
2019-05-02T05:45:09.869Z,192.67
2019-05-02T05:47:37.847Z,200.30
2019-05-02T05:50:08.719Z,190.00
2019-05-02T05:52:42.454Z,201.93
2019-05-02T05:55:12.760Z,210.13
2019-05-02T05:57:44.268Z,197.90
2019-05-02T06:00:18.853Z,206.80
2019-05-02T06:02:53.982Z,208.30
2019-05-02T06:05:20.350Z,216.57
2019-05-02T06:07:51.154Z,215.80
2019-05-02T06:10:21.910Z,211.80
2019-05-02T06:12:52.697Z,218.10
2019-05-02T06:15:23.463Z,217.37
2019-05-02T06:17:54.210Z,210.10
2019-05-02T06:20:25.698Z,223.67
2019-05-02T06:23:00.002Z,228.37
2019-05-02T06:25:34.183Z,225.13
2019-05-02T06:28:05.453Z,217.03
2019-05-02T06:30:34.865Z,213.17
2019-05-02T06:33:05.670Z,207.27
2019-05-02T06:35:36.455Z,203.13
2019-05-02T06:38:07.241Z,209.77
2019-05-02T06:40:39.338Z,205.03
2019-05-02T06:43:11.423Z,201.87
2019-05-02T06:45:42.322Z,210.77
2019-05-02T06:48:16.838Z,215.37
2019-05-02T06:50:45.504Z,219.93
2019-05-02T06:53:16.291Z,201.07
2019-05-02T06:55:47.096Z,187.17
2019-05-02T06:58:17.893Z,194.23
2019-05-02T07:00:57.721Z,183.03
2019-05-02T07:03:21.079Z,165.23
2019-05-02T07:05:51.873Z,168.50
2019-05-02T07:08:22.685Z,169.50
2019-05-02T07:10:55.951Z,175.10
2019-05-02T07:13:25.902Z,166.67
2019-05-02T07:16:37.257Z,174.73
2019-05-02T07:18:53.150Z,180.37
2019-05-02T07:21:23.947Z,171.63
2019-05-02T07:23:55.227Z,166.57
2019-05-02T07:26:26.009Z,179.60
2019-05-02T07:28:56.696Z,174.80
2019-05-02T07:31:27.544Z,184.33
2019-05-02T07:33:58.309Z,170.27
2019-05-02T07:36:31.308Z,181.37
2019-05-02T07:39:05.166Z,164.97
2019-05-02T07:41:37.055Z,143.00
2019-05-02T07:44:06.395Z,132.77
2019-05-02T07:46:50.685Z,133.03
2019-05-02T07:49:09.590Z,127.20
2019-05-02T07:51:40.424Z,124.90
2019-05-02T07:54:11.220Z,133.97
2019-05-02T07:56:41.936Z,134.13
2019-05-02T07:59:12.684Z,123.53
2019-05-02T08:01:44.954Z,119.00
2019-05-02T08:04:15.837Z,115.63
2019-05-02T08:06:46.642Z,118.27
2019-05-02T08:09:17.438Z,125.60
2019-05-02T08:11:48.682Z,115.33
2019-05-02T08:14:19.468Z,118.93
2019-05-02T08:16:50.259Z,113.10
2019-05-02T08:19:23.478Z,109.93
2019-05-02T08:21:53.491Z,117.43
2019-05-02T08:24:24.288Z,107.93
2019-05-02T08:27:14.329Z,111.00
2019-05-02T08:29:45.134Z,104.37
2019-05-02T08:32:15.952Z,104.33
2019-05-02T08:34:51.660Z,111.10
2019-05-02T08:37:19.363Z,102.00
2019-05-02T08:40:11.949Z,108.87
2019-05-02T08:42:42.961Z,99.70
2019-05-02T08:45:14.494Z,102.80
2019-05-02T08:47:45.315Z,97.77
2019-05-02T08:50:16.270Z,98.47
2019-05-02T08:52:48.085Z,95.17
2019-05-02T08:55:19.035Z,94.07
2019-05-02T08:57:49.839Z,96.87
2019-05-02T09:00:20.807Z,97.00
2019-05-02T09:02:51.583Z,93.53
2019-05-02T09:05:22.358Z,93.90
2019-05-02T09:07:53.155Z,91.23
2019-05-02T09:10:23.911Z,100.27
2019-05-02T09:12:54.677Z,100.30
2019-05-02T09:15:25.454Z,89.93
2019-05-02T09:17:56.655Z,86.13
2019-05-02T09:20:27.524Z,90.60
2019-05-02T09:22:58.292Z,94.47
2019-05-02T09:25:29.109Z,90.00
2019-05-02T09:28:01.739Z,93.37
2019-05-02T09:30:32.688Z,90.20
2019-05-02T09:33:06.605Z,88.07
2019-05-02T09:35:36.025Z,93.43
2019-05-02T09:38:06.821Z,95.30
2019-05-02T09:40:37.650Z,89.13
2019-05-02T09:43:08.446Z,84.83
2019-05-02T09:45:41.275Z,85.40
2019-05-02T09:48:12.567Z,80.77
2019-05-02T09:51:04.534Z,84.17
2019-05-02T09:53:35.332Z,86.80
2019-05-02T09:56:06.121Z,82.27
2019-05-02T09:58:36.897Z,77.97
2019-05-02T10:01:31.749Z,82.47
2019-05-02T10:04:02.539Z,68.67
2019-05-02T10:06:34.096Z,74.77
2019-05-02T10:09:07.268Z,82.93
2019-05-02T10:11:38.067Z,83.10
2019-05-02T10:14:08.851Z,78.57
2019-05-02T10:16:39.667Z,74.13
2019-05-02T10:19:11.447Z,80.73
2019-05-02T10:21:46.860Z,71.00
2019-05-02T10:24:15.247Z,74.70
2019-05-02T10:26:46.043Z,78.20
2019-05-02T10:29:21.005Z,69.83
2019-05-02T10:31:49.287Z,69.90
2019-05-02T10:34:20.526Z,73.30
2019-05-02T10:36:58.502Z,79.30
2019-05-02T10:39:28.401Z,77.13
2019-05-02T10:41:57.656Z,79.33
2019-05-02T10:44:32.760Z,78.73
2019-05-02T10:47:02.784Z,91.50
2019-05-02T10:49:52.745Z,82.43
2019-05-02T10:52:29.710Z,79.60
2019-05-02T10:54:56.060Z,77.17
2019-05-02T10:57:26.826Z,79.80
2019-05-02T10:59:57.656Z,77.20
2019-05-02T11:02:46.013Z,76.33
2019-05-02T11:05:22.538Z,108.87
2019-05-02T11:07:52.353Z,81.13
2019-05-02T11:10:23.183Z,77.03
2019-05-02T11:13:03.331Z,168.73
2019-05-02T11:15:53.903Z,123.57
2019-05-02T11:18:40.271Z,77.63
2019-05-02T11:21:06.788Z,62.93
2019-05-02T11:23:32.838Z,65.90
2019-05-02T11:26:03.709Z,61.53
2019-05-02T11:28:34.525Z,55.87
2019-05-02T11:31:06.918Z,61.10
2019-05-02T11:33:37.698Z,55.93
2019-05-02T11:36:08.515Z,51.63
2019-05-02T11:38:40.733Z,49.83
2019-05-02T11:41:11.961Z,42.17
2019-05-02T11:43:44.943Z,41.57
2019-05-02T11:46:15.201Z,42.03
2019-05-02T11:48:55.644Z,45.80
2019-05-02T11:51:18.534Z,54.63
2019-05-02T11:53:49.341Z,48.67
2019-05-02T11:56:22.044Z,39.53
2019-05-02T11:58:52.954Z,40.67
2019-05-02T12:01:35.807Z,54.67
2019-05-02T12:03:56.786Z,44.23
2019-05-02T12:06:29.292Z,48.27
2019-05-02T12:09:01.917Z,50.67
2019-05-02T12:11:32.521Z,55.37
2019-05-02T12:14:03.232Z,49.03
2019-05-02T12:16:34.038Z,54.47
2019-05-02T12:19:11.337Z,48.70
2019-05-02T12:21:39.213Z,47.27
2019-05-02T12:24:09.638Z,50.87
2019-05-02T12:26:41.914Z,54.13
2019-05-02T12:29:12.764Z,56.77
2019-05-02T12:31:47.238Z,54.67
2019-05-02T12:34:16.014Z,56.20
2019-05-02T12:36:46.730Z,60.10
2019-05-02T12:39:17.556Z,63.37
2019-05-02T12:41:48.635Z,56.47
2019-05-02T12:44:19.640Z,51.87
2019-05-02T12:46:51.795Z,56.07
2019-05-02T12:49:27.676Z,53.10
2019-05-02T12:51:55.180Z,60.80
2019-05-02T12:54:25.975Z,53.97
2019-05-02T12:56:56.754Z,60.70
2019-05-02T12:59:46.583Z,60.73
2019-05-02T13:02:26.228Z,59.77
2019-05-02T13:04:56.977Z,58.23
2019-05-02T13:07:27.724Z,59.95
2019-05-02T13:09:58.480Z,62.13
2019-05-02T13:12:32.361Z,66.07
2019-05-02T13:15:03.283Z,75.37
2019-05-02T13:17:37.196Z,73.77
2019-05-02T13:20:08.945Z,59.17
2019-05-02T13:23:05.034Z,73.57
2019-05-02T13:25:37.050Z,99.73
2019-05-02T13:28:07.862Z,73.33
2019-05-02T13:30:52.548Z,72.77
2019-05-02T13:33:34.410Z,69.77
2019-05-02T13:36:03.238Z,57.08
2019-05-02T13:38:34.113Z,61.20
2019-05-02T13:41:04.999Z,69.70
2019-05-02T13:43:44.222Z,60.73
2019-05-02T13:46:22.192Z,56.17
2019-05-02T13:48:52.984Z,183.07
2019-05-02T13:51:23.778Z,63.83
2019-05-02T13:54:02.025Z,52.57
2019-05-02T13:56:52.684Z,56.57
2019-05-02T13:59:23.505Z,70.53
2019-05-02T14:01:55.020Z,48.53
2019-05-02T14:04:25.768Z,50.77
2019-05-02T14:06:56.554Z,49.85
2019-05-02T14:09:52.683Z,48.35
2019-05-02T14:12:44.848Z,48.13
2019-05-02T14:15:17.099Z,49.80
2019-05-02T14:17:47.846Z,45.52
2019-05-02T14:20:22.405Z,42.15
2019-05-02T14:22:53.306Z,42.98
2019-05-02T14:25:24.040Z,42.83
2019-05-02T14:27:55.749Z,45.92
2019-05-02T14:30:38.778Z,40.07
2019-05-02T14:33:03.918Z,40.03
2019-05-02T14:35:36.709Z,51.60
2019-05-02T14:38:13.218Z,40.53
2019-05-02T14:41:12.464Z,37.37
2019-05-02T14:43:56.311Z,43.73
2019-05-02T14:46:37.422Z,44.27
2019-05-02T14:48:59.582Z,35.30
2019-05-02T14:51:32.551Z,32.90
2019-05-02T14:54:08.003Z,36.83
2019-05-02T14:56:54.285Z,39.40
2019-05-02T14:59:25.011Z,39.90
2019-05-02T15:02:05.763Z,41.77
2019-05-02T15:04:32.112Z,42.47
2019-05-02T15:07:03.042Z,41.47
2019-05-02T15:09:36.113Z,30.90
2019-05-02T15:12:14.095Z,36.40
2019-05-02T15:14:38.941Z,41.33
2019-05-02T15:17:11.966Z,36.20
2019-05-02T15:19:42.731Z,37.73
2019-05-02T15:22:13.634Z,34.13
2019-05-02T15:24:44.458Z,37.10
2019-05-02T15:27:17.761Z,29.80
2019-05-02T15:29:47.824Z,34.87
2019-05-02T15:32:46.423Z,33.33
2019-05-02T15:35:26.870Z,32.17
2019-05-02T15:38:01.784Z,35.87
2019-05-02T15:43:02.781Z,36.43
2019-05-02T15:45:36.730Z,38.93
2019-05-02T15:48:05.725Z,35.73
2019-05-02T15:50:43.614Z,36.50
2019-05-02T15:53:17.760Z,40.20
2019-05-02T15:55:50.042Z,34.70
2019-05-02T15:58:23.824Z,46.33
2019-05-02T16:01:18.427Z,33.27
2019-05-02T16:03:52.261Z,27.53
2019-05-02T16:06:30.385Z,24.50
2019-05-02T16:08:55.501Z,30.90
2019-05-02T16:11:26.283Z,26.23
2019-05-02T16:13:57.048Z,30.17
2019-05-02T16:16:27.887Z,25.80
2019-05-02T16:18:58.745Z,26.47
2019-05-02T16:21:38.359Z,26.80
2019-05-02T16:24:25.220Z,23.00
2019-05-02T16:26:57.134Z,22.67
2019-05-02T16:29:29.021Z,24.33
2019-05-02T16:32:14.103Z,27.33
2019-05-02T16:34:54.766Z,24.83
2019-05-02T16:37:25.898Z,27.07
2019-05-02T16:39:56.733Z,23.00
2019-05-02T16:42:27.530Z,27.67
2019-05-02T16:44:58.332Z,27.90
2019-05-02T16:47:29.072Z,30.63
2019-05-02T16:49:59.878Z,31.83
2019-05-02T16:52:32.563Z,28.47
2019-05-02T16:55:03.140Z,32.83
2019-05-02T16:57:35.143Z,24.73
2019-05-02T17:00:08.055Z,30.00
2019-05-02T17:02:44.916Z,26.57
2019-05-02T17:05:12.043Z,25.17
2019-05-02T17:08:20.694Z,27.43
2019-05-02T17:11:15.357Z,27.03
2019-05-02T17:13:43.971Z,31.33
2019-05-02T17:16:17.142Z,27.47
2019-05-02T17:18:48.279Z,25.80
2019-05-02T17:21:19.562Z,25.87
2019-05-02T17:23:52.321Z,23.73
2019-05-02T17:26:22.910Z,25.47
2019-05-02T17:28:53.620Z,31.27
2019-05-02T17:31:24.486Z,24.33
2019-05-02T17:33:55.224Z,30.30
2019-05-02T17:36:28.625Z,27.53
2019-05-02T17:38:59.219Z,23.00
2019-05-02T17:41:31.812Z,22.70
2019-05-02T17:44:03.225Z,30.47
2019-05-02T17:46:58.360Z,28.13
2019-05-02T17:49:31.856Z,36.70
2019-05-02T17:52:26.690Z,23.10
2019-05-02T17:54:57.468Z,33.20
2019-05-02T17:57:28.491Z,49.73
2019-05-02T17:59:59.019Z,33.63
2019-05-02T18:02:31.601Z,42.87
2019-05-02T18:05:02.807Z,31.53
2019-05-02T18:07:36.158Z,32.00
2019-05-02T18:10:14.295Z,31.07
2019-05-02T18:12:38.992Z,31.80
2019-05-02T18:15:11.852Z,28.43
2019-05-02T18:17:42.795Z,32.20
2019-05-02T18:20:13.712Z,25.20
2019-05-02T18:22:48.712Z,25.00
2019-05-02T18:25:23.607Z,27.97
2019-05-02T18:27:49.412Z,23.20
2019-05-02T18:30:25.417Z,20.33
2019-05-02T18:32:57.809Z,17.10
2019-05-02T18:35:26.471Z,10.67
2019-05-02T18:37:57.308Z,12.87
2019-05-02T18:40:31.543Z,11.30
2019-05-02T18:43:02.207Z,12.67
2019-05-02T18:45:32.947Z,12.20
2019-05-02T18:48:06.638Z,24.03
2019-05-02T18:50:44.372Z,20.90
2019-05-02T18:53:11.149Z,22.87
2019-05-02T18:55:42.283Z,17.80
2019-05-02T18:58:13.104Z,33.87
2019-05-02T19:00:43.997Z,24.13
2019-05-02T19:03:17.073Z,30.23
2019-05-02T19:05:51.692Z,49.43
2019-05-02T19:08:29.124Z,34.90
2019-05-02T19:11:04.641Z,36.10
2019-05-02T19:13:24.927Z,23.47
2019-05-02T19:15:55.817Z,24.10
2019-05-02T19:18:26.592Z,22.00
2019-05-02T19:21:03.141Z,34.57
2019-05-02T19:23:35.727Z,22.83
2019-05-02T19:26:15.026Z,21.00
2019-05-02T19:29:15.737Z,21.73
2019-05-02T19:31:47.936Z,23.07
2019-05-02T19:34:25.275Z,20.13
2019-05-02T19:36:52.909Z,17.67
2019-05-02T19:39:24.341Z,18.20
2019-05-02T19:41:55.271Z,14.53
2019-05-02T19:44:29.066Z,17.00
2019-05-02T19:46:58.436Z,21.67
2019-05-02T19:49:29.214Z,17.17
2019-05-02T19:52:02.094Z,19.03
2019-05-02T19:54:39.567Z,19.90
2019-05-02T19:57:04.810Z,16.83
2019-05-02T19:59:35.626Z,18.03
2019-05-02T20:02:06.601Z,16.70
2019-05-02T20:04:37.597Z,21.73
2019-05-02T20:07:09.799Z,21.20
2019-05-02T20:09:43.602Z,23.53
2019-05-02T20:12:15.601Z,21.37
2019-05-02T20:14:47.540Z,21.57
2019-05-02T20:17:20.249Z,22.87
2019-05-02T20:19:57.787Z,20.20
2019-05-02T20:22:26.247Z,25.07
2019-05-02T20:25:00.154Z,22.83
2019-05-02T20:27:30.007Z,23.27
2019-05-02T20:30:02.463Z,23.00
2019-05-02T20:32:33.143Z,24.17
2019-05-02T20:35:04.049Z,26.97
2019-05-02T20:37:34.809Z,25.67
2019-05-02T20:40:05.873Z,25.53
2019-05-02T20:42:36.629Z,24.30
2019-05-02T20:45:07.715Z,25.60
2019-05-02T20:47:38.510Z,24.43
2019-05-02T20:50:09.288Z,24.10
2019-05-02T20:52:52.435Z,25.40
2019-05-02T20:55:23.183Z,26.97
2019-05-02T20:57:53.962Z,24.47
2019-05-02T21:00:26.854Z,24.63
2019-05-02T21:02:58.374Z,25.33
2019-05-02T21:05:36.012Z,22.07
2019-05-02T21:08:16.451Z,24.03
2019-05-02T21:10:48.187Z,25.23
2019-05-02T21:13:18.963Z,24.93
2019-05-02T21:15:49.709Z,24.30
2019-05-02T21:18:22.092Z,24.13
2019-05-02T21:20:52.973Z,22.87
2019-05-02T21:23:23.799Z,26.03
2019-05-02T21:25:54.556Z,27.90
2019-05-02T21:28:25.382Z,23.77
2019-05-02T21:30:56.118Z,21.03
2019-05-02T21:33:39.987Z,20.67
2019-05-02T21:36:12.036Z,21.03
2019-05-02T21:38:43.091Z,23.27
2019-05-02T21:41:14.161Z,17.60
2019-05-02T21:43:44.920Z,20.20
2019-05-02T21:46:15.709Z,19.07
2019-05-02T21:48:46.475Z,19.33
2019-05-02T21:51:45.038Z,20.50
2019-05-02T21:54:22.733Z,22.07
2019-05-02T21:56:59.854Z,19.60
2019-05-02T21:59:30.660Z,24.90
2019-05-02T22:02:02.423Z,22.20
2019-05-02T22:04:33.354Z,22.00
2019-05-02T22:07:04.420Z,24.07
2019-05-02T22:09:36.966Z,22.10
2019-05-02T22:12:08.113Z,24.03
2019-05-02T22:14:38.860Z,25.97
2019-05-02T22:17:09.572Z,26.00
2019-05-02T22:19:41.669Z,24.40
2019-05-02T22:22:12.459Z,26.47
2019-05-02T22:24:43.225Z,27.80
2019-05-02T22:27:13.994Z,30.60
2019-05-02T22:29:44.758Z,29.77
2019-05-02T22:32:15.487Z,28.80
2019-05-02T22:34:46.282Z,29.87
2019-05-02T22:37:18.578Z,31.30
2019-05-02T22:39:53.945Z,34.33
2019-05-02T22:42:24.632Z,37.73
2019-05-02T22:44:55.380Z,38.43
2019-05-02T22:47:26.114Z,39.77
2019-05-02T22:49:56.914Z,38.50
2019-05-02T22:52:46.732Z,38.27
2019-05-02T22:55:17.538Z,37.57
2019-05-02T22:57:48.295Z,45.83
2019-05-02T23:00:19.223Z,41.10
2019-05-02T23:02:49.993Z,40.03
2019-05-02T23:05:20.773Z,39.53
2019-05-02T23:07:52.677Z,41.03
2019-05-02T23:10:23.638Z,45.03
2019-05-02T23:12:54.403Z,41.77
2019-05-02T23:15:25.159Z,43.50
2019-05-02T23:17:55.915Z,41.47
2019-05-02T23:20:28.082Z,43.33
2019-05-02T23:22:58.858Z,38.70
2019-05-02T23:25:47.669Z,45.17
2019-05-02T23:28:22.157Z,39.77
2019-05-02T23:30:54.134Z,38.07
2019-05-02T23:33:28.060Z,38.83
2019-05-02T23:35:58.837Z,45.87
2019-05-02T23:38:29.623Z,37.93
2019-05-02T23:41:02.017Z,39.17
2019-05-02T23:43:32.957Z,40.03
2019-05-02T23:46:03.732Z,36.80
2019-05-02T23:48:34.500Z,38.97
2019-05-02T23:51:05.616Z,37.90
2019-05-02T23:53:36.403Z,38.67
2019-05-02T23:56:07.282Z,37.70
2019-05-02T23:58:38.023Z,36.60
